Terminal Aerodrome Forecast
Issued by NWS

Home | Current Version | Previous Version | Text Only | Print | Product List | Glossary Off
Versions: 1 2 3 4 5 6 7 8 9 10 11 12 13 14

000
FTUS43 KICT 210500
TAFSLN
TAF
KSLN 210522Z 2106/2206 18015G22KT P6SM FEW100 SCT250
     FM211500 20019G27KT P6SM FEW060 SCT250
     FM220100 18014G20KT P6SM SCT120=

USA.gov is the U.S. government's official web portal to all federal, state and local government web resources and services.